sensor_id;sensor_type;location;lat;lon;timestamp;P1;durP1;ratioP1;P2;durP2;ratioP2
43994;SDS011;51687;52.160;5.298;2023-02-13T00:00:17;39.63;;;33.85;;
43994;SDS011;51687;52.160;5.298;2023-02-13T00:02:46;41.47;;;34.97;;
43994;SDS011;51687;52.160;5.298;2023-02-13T00:05:13;39.47;;;34.92;;
43994;SDS011;51687;52.160;5.298;2023-02-13T00:07:40;41.00;;;33.55;;
43994;SDS011;51687;52.160;5.298;2023-02-13T00:10:06;36.38;;;32.67;;
43994;SDS011;51687;52.160;5.298;2023-02-13T00:12:34;39.13;;;31.88;;
43994;SDS011;51687;52.160;5.298;2023-02-13T00:15:01;37.53;;;32.03;;
43994;SDS011;51687;52.160;5.298;2023-02-13T00:17:28;36.08;;;32.13;;
43994;SDS011;51687;52.160;5.298;2023-02-13T00:19:55;36.53;;;31.63;;
43994;SDS011;51687;52.160;5.298;2023-02-13T00:22:21;35.53;;;31.75;;
43994;SDS011;51687;52.160;5.298;2023-02-13T00:24:49;33.05;;;29.67;;
43994;SDS011;51687;52.160;5.298;2023-02-13T00:27:16;33.67;;;30.05;;
43994;SDS011;51687;52.160;5.298;2023-02-13T00:29:43;33.95;;;30.45;;
43994;SDS011;51687;52.160;5.298;2023-02-13T00:32:09;34.75;;;31.10;;
43994;SDS011;51687;52.160;5.298;2023-02-13T00:34:36;33.00;;;29.70;;
43994;SDS011;51687;52.160;5.298;2023-02-13T00:37:03;35.30;;;31.50;;
43994;SDS011;51687;52.160;5.298;2023-02-13T00:39:30;36.28;;;30.35;;
43994;SDS011;51687;52.160;5.298;2023-02-13T00:41:56;34.97;;;31.33;;
43994;SDS011;51687;52.160;5.298;2023-02-13T00:44:23;34.50;;;30.75;;
43994;SDS011;51687;52.160;5.298;2023-02-13T00:46:50;34.08;;;30.48;;
43994;SDS011;51687;52.160;5.298;2023-02-13T00:49:17;33.88;;;30.48;;
43994;SDS011;51687;52.160;5.298;2023-02-13T00:51:43;34.17;;;30.10;;
43994;SDS011;51687;52.160;5.298;2023-02-13T00:54:10;35.67;;;30.83;;
43994;SDS011;51687;52.160;5.298;2023-02-13T00:56:37;35.17;;;30.80;;
43994;SDS011;51687;52.160;5.298;2023-02-13T00:59:04;35.97;;;30.63;;
43994;SDS011;51687;52.160;5.298;2023-02-13T01:01:30;33.03;;;29.63;;
43994;SDS011;51687;52.160;5.298;2023-02-13T01:03:57;34.55;;;30.02;;
43994;SDS011;51687;52.160;5.298;2023-02-13T01:06:24;33.13;;;29.52;;
43994;SDS011;51687;52.160;5.298;2023-02-13T01:08:51;31.73;;;28.45;;
43994;SDS011;51687;52.160;5.298;2023-02-13T01:11:18;33.28;;;29.67;;
43994;SDS011;51687;52.160;5.298;2023-02-13T01:13:45;31.75;;;28.38;;
43994;SDS011;51687;52.160;5.298;2023-02-13T01:16:12;32.38;;;28.63;;
43994;SDS011;51687;52.160;5.298;2023-02-13T01:18:41;31.77;;;28.20;;
43994;SDS011;51687;52.160;5.298;2023-02-13T01:21:11;32.78;;;28.52;;
43994;SDS011;51687;52.160;5.298;2023-02-13T01:23:42;30.83;;;27.52;;
43994;SDS011;51687;52.160;5.298;2023-02-13T01:26:10;36.15;;;28.67;;
43994;SDS011;51687;52.160;5.298;2023-02-13T01:28:41;32.40;;;29.00;;
43994;SDS011;51687;52.160;5.298;2023-02-13T01:31:08;32.17;;;28.25;;
43994;SDS011;51687;52.160;5.298;2023-02-13T01:33:35;33.80;;;27.67;;
43994;SDS011;51687;52.160;5.298;2023-02-13T01:36:05;31.63;;;26.98;;
43994;SDS011;51687;52.160;5.298;2023-02-13T01:38:37;30.10;;;27.00;;
43994;SDS011;51687;52.160;5.298;2023-02-13T01:41:03;29.60;;;26.55;;
43994;SDS011;51687;52.160;5.298;2023-02-13T01:43:47;30.50;;;27.23;;
43994;SDS011;51687;52.160;5.298;2023-02-13T01:46:19;33.22;;;27.63;;
43994;SDS011;51687;52.160;5.298;2023-02-13T01:48:52;29.20;;;26.02;;
43994;SDS011;51687;52.160;5.298;2023-02-13T01:51:22;28.90;;;25.73;;
43994;SDS011;51687;52.160;5.298;2023-02-13T01:54:00;28.23;;;25.20;;
43994;SDS011;51687;52.160;5.298;2023-02-13T01:56:33;29.50;;;26.35;;
43994;SDS011;51687;52.160;5.298;2023-02-13T01:59:11;29.27;;;26.30;;
43994;SDS011;51687;52.160;5.298;2023-02-13T02:01:41;30.25;;;26.98;;
43994;SDS011;51687;52.160;5.298;2023-02-13T02:04:13;28.70;;;25.67;;
43994;SDS011;51687;52.160;5.298;2023-02-13T02:06:51;29.97;;;26.80;;
43994;SDS011;51687;52.160;5.298;2023-02-13T02:09:25;31.08;;;27.25;;
43994;SDS011;51687;52.160;5.298;2023-02-13T02:12:03;31.70;;;25.92;;
43994;SDS011;51687;52.160;5.298;2023-02-13T02:14:31;30.88;;;27.50;;
43994;SDS011;51687;52.160;5.298;2023-02-13T02:16:58;32.47;;;28.92;;
43994;SDS011;51687;52.160;5.298;2023-02-13T02:20:11;29.65;;;26.55;;
43994;SDS011;51687;52.160;5.298;2023-02-13T02:33:47;31.92;;;27.70;;
43994;SDS011;51687;52.160;5.298;2023-02-13T02:36:53;29.80;;;26.90;;
43994;SDS011;51687;52.160;5.298;2023-02-13T02:39:43;28.67;;;25.65;;
43994;SDS011;51687;52.160;5.298;2023-02-13T02:51:11;31.38;;;28.00;;
43994;SDS011;51687;52.160;5.298;2023-02-13T02:54:06;32.50;;;27.25;;
43994;SDS011;51687;52.160;5.298;2023-02-13T02:57:08;30.63;;;26.55;;
43994;SDS011;51687;52.160;5.298;2023-02-13T02:59:39;31.23;;;27.88;;
43994;SDS011;51687;52.160;5.298;2023-02-13T03:02:25;30.60;;;27.33;;
43994;SDS011;51687;52.160;5.298;2023-02-13T03:05:26;30.80;;;27.42;;
43994;SDS011;51687;52.160;5.298;2023-02-13T03:08:14;32.53;;;27.67;;
43994;SDS011;51687;52.160;5.298;2023-02-13T03:11:02;32.15;;;27.17;;
43994;SDS011;51687;52.160;5.298;2023-02-13T03:13:49;32.47;;;28.02;;
43994;SDS011;51687;52.160;5.298;2023-02-13T03:16:16;30.20;;;26.52;;
43994;SDS011;51687;52.160;5.298;2023-02-13T03:19:11;30.48;;;26.70;;
43994;SDS011;51687;52.160;5.298;2023-02-13T03:22:12;30.85;;;27.27;;
43994;SDS011;51687;52.160;5.298;2023-02-13T03:30:55;35.63;;;27.42;;
43994;SDS011;51687;52.160;5.298;2023-02-13T03:42:23;32.95;;;27.38;;
43994;SDS011;51687;52.160;5.298;2023-02-13T03:44:59;33.65;;;28.20;;
43994;SDS011;51687;52.160;5.298;2023-02-13T03:47:54;33.53;;;28.13;;
43994;SDS011;51687;52.160;5.298;2023-02-13T03:50:22;33.17;;;29.45;;
43994;SDS011;51687;52.160;5.298;2023-02-13T03:55:24;32.95;;;26.95;;
43994;SDS011;51687;52.160;5.298;2023-02-13T03:58:18;30.52;;;27.30;;
43994;SDS011;51687;52.160;5.298;2023-02-13T04:01:08;31.17;;;27.63;;
43994;SDS011;51687;52.160;5.298;2023-02-13T04:06:19;31.70;;;27.58;;
43994;SDS011;51687;52.160;5.298;2023-02-13T04:08:51;33.25;;;27.95;;
43994;SDS011;51687;52.160;5.298;2023-02-13T04:11:35;29.25;;;26.05;;
43994;SDS011;51687;52.160;5.298;2023-02-13T04:14:48;34.58;;;29.35;;
43994;SDS011;51687;52.160;5.298;2023-02-13T04:17:02;29.40;;;26.40;;
43994;SDS011;51687;52.160;5.298;2023-02-13T04:19:32;35.88;;;28.60;;
43994;SDS011;51687;52.160;5.298;2023-02-13T04:22:00;30.27;;;27.00;;
43994;SDS011;51687;52.160;5.298;2023-02-13T04:24:28;29.50;;;26.40;;
43994;SDS011;51687;52.160;5.298;2023-02-13T04:26:55;34.40;;;27.75;;
43994;SDS011;51687;52.160;5.298;2023-02-13T04:29:23;34.47;;;29.33;;
43994;SDS011;51687;52.160;5.298;2023-02-13T04:31:51;30.88;;;26.98;;
43994;SDS011;51687;52.160;5.298;2023-02-13T04:34:18;31.95;;;27.35;;
43994;SDS011;51687;52.160;5.298;2023-02-13T04:36:45;29.73;;;26.55;;
43994;SDS011;51687;52.160;5.298;2023-02-13T04:39:11;35.00;;;27.45;;
43994;SDS011;51687;52.160;5.298;2023-02-13T04:41:38;31.92;;;26.75;;
43994;SDS011;51687;52.160;5.298;2023-02-13T04:44:05;30.27;;;27.10;;
43994;SDS011;51687;52.160;5.298;2023-02-13T04:46:32;29.90;;;26.70;;
43994;SDS011;51687;52.160;5.298;2023-02-13T04:48:59;32.00;;;27.23;;
43994;SDS011;51687;52.160;5.298;2023-02-13T04:51:25;29.85;;;25.88;;
43994;SDS011;51687;52.160;5.298;2023-02-13T04:53:52;32.63;;;27.08;;
43994;SDS011;51687;52.160;5.298;2023-02-13T04:56:19;32.38;;;27.30;;
43994;SDS011;51687;52.160;5.298;2023-02-13T04:58:46;29.30;;;26.17;;
43994;SDS011;51687;52.160;5.298;2023-02-13T05:01:13;34.00;;;27.15;;
43994;SDS011;51687;52.160;5.298;2023-02-13T05:06:08;28.08;;;25.13;;
43994;SDS011;51687;52.160;5.298;2023-02-13T05:08:35;29.30;;;26.20;;
43994;SDS011;51687;52.160;5.298;2023-02-13T05:11:02;29.88;;;26.67;;
43994;SDS011;51687;52.160;5.298;2023-02-13T05:13:28;28.73;;;25.67;;
43994;SDS011;51687;52.160;5.298;2023-02-13T05:15:55;29.02;;;24.75;;
43994;SDS011;51687;52.160;5.298;2023-02-13T05:18:22;29.83;;;26.50;;
43994;SDS011;51687;52.160;5.298;2023-02-13T05:20:49;34.08;;;26.23;;
43994;SDS011;51687;52.160;5.298;2023-02-13T05:23:36;29.92;;;26.52;;
43994;SDS011;51687;52.160;5.298;2023-02-13T05:26:02;26.67;;;23.98;;
43994;SDS011;51687;52.160;5.298;2023-02-13T05:28:30;33.97;;;26.35;;
43994;SDS011;51687;52.160;5.298;2023-02-13T05:31:16;31.75;;;26.08;;
43994;SDS011;51687;52.160;5.298;2023-02-13T05:33:45;28.63;;;25.60;;
43994;SDS011;51687;52.160;5.298;2023-02-13T05:36:12;35.20;;;27.15;;
43994;SDS011;51687;52.160;5.298;2023-02-13T05:38:38;27.70;;;24.77;;
43994;SDS011;51687;52.160;5.298;2023-02-13T05:41:06;29.63;;;26.40;;
43994;SDS011;51687;52.160;5.298;2023-02-13T05:43:33;29.27;;;25.70;;
43994;SDS011;51687;52.160;5.298;2023-02-13T05:46:06;32.08;;;26.25;;
43994;SDS011;51687;52.160;5.298;2023-02-13T05:48:35;28.73;;;25.13;;
43994;SDS011;51687;52.160;5.298;2023-02-13T05:51:02;31.17;;;26.10;;
43994;SDS011;51687;52.160;5.298;2023-02-13T05:53:29;30.40;;;25.70;;
43994;SDS011;51687;52.160;5.298;2023-02-13T05:55:56;34.78;;;25.85;;
43994;SDS011;51687;52.160;5.298;2023-02-13T05:58:22;32.92;;;27.23;;
43994;SDS011;51687;52.160;5.298;2023-02-13T06:00:49;37.40;;;27.33;;
43994;SDS011;51687;52.160;5.298;2023-02-13T06:03:16;33.38;;;26.63;;
43994;SDS011;51687;52.160;5.298;2023-02-13T06:05:43;34.58;;;27.90;;
43994;SDS011;51687;52.160;5.298;2023-02-13T06:08:09;30.95;;;26.60;;
43994;SDS011;51687;52.160;5.298;2023-02-13T06:10:36;33.70;;;27.58;;
43994;SDS011;51687;52.160;5.298;2023-02-13T06:13:03;35.03;;;27.92;;
43994;SDS011;51687;52.160;5.298;2023-02-13T06:15:30;32.65;;;26.92;;
43994;SDS011;51687;52.160;5.298;2023-02-13T06:17:57;32.75;;;27.35;;
43994;SDS011;51687;52.160;5.298;2023-02-13T06:20:23;31.90;;;27.50;;
43994;SDS011;51687;52.160;5.298;2023-02-13T06:22:50;31.13;;;26.55;;
43994;SDS011;51687;52.160;5.298;2023-02-13T06:25:18;30.77;;;26.40;;
43994;SDS011;51687;52.160;5.298;2023-02-13T06:27:45;29.55;;;26.13;;
43994;SDS011;51687;52.160;5.298;2023-02-13T06:30:13;31.83;;;26.02;;
43994;SDS011;51687;52.160;5.298;2023-02-13T06:32:40;30.27;;;26.15;;
43994;SDS011;51687;52.160;5.298;2023-02-13T06:35:07;32.72;;;28.05;;
43994;SDS011;51687;52.160;5.298;2023-02-13T06:37:34;35.65;;;28.52;;
43994;SDS011;51687;52.160;5.298;2023-02-13T06:40:01;34.25;;;27.70;;
43994;SDS011;51687;52.160;5.298;2023-02-13T06:42:28;31.60;;;27.67;;
43994;SDS011;51687;52.160;5.298;2023-02-13T06:44:55;31.83;;;28.33;;
43994;SDS011;51687;52.160;5.298;2023-02-13T06:47:21;33.42;;;27.52;;
43994;SDS011;51687;52.160;5.298;2023-02-13T06:49:48;32.67;;;28.05;;
43994;SDS011;51687;52.160;5.298;2023-02-13T06:52:15;37.60;;;28.92;;
43994;SDS011;51687;52.160;5.298;2023-02-13T06:54:42;37.50;;;29.75;;
43994;SDS011;51687;52.160;5.298;2023-02-13T06:57:13;34.78;;;29.65;;
43994;SDS011;51687;52.160;5.298;2023-02-13T06:59:41;36.93;;;30.60;;
43994;SDS011;51687;52.160;5.298;2023-02-13T07:02:11;36.03;;;30.88;;
43994;SDS011;51687;52.160;5.298;2023-02-13T07:04:38;38.40;;;30.35;;
43994;SDS011;51687;52.160;5.298;2023-02-13T07:07:06;33.42;;;29.17;;
43994;SDS011;51687;52.160;5.298;2023-02-13T07:09:33;36.92;;;29.75;;
43994;SDS011;51687;52.160;5.298;2023-02-13T07:12:03;38.22;;;30.40;;
43994;SDS011;51687;52.160;5.298;2023-02-13T07:14:30;43.60;;;31.23;;
43994;SDS011;51687;52.160;5.298;2023-02-13T07:16:57;36.60;;;31.40;;
43994;SDS011;51687;52.160;5.298;2023-02-13T07:19:24;43.13;;;31.42;;
43994;SDS011;51687;52.160;5.298;2023-02-13T07:21:57;43.15;;;30.70;;
43994;SDS011;51687;52.160;5.298;2023-02-13T07:24:25;37.42;;;30.30;;
43994;SDS011;51687;52.160;5.298;2023-02-13T07:26:51;41.47;;;30.65;;
43994;SDS011;51687;52.160;5.298;2023-02-13T07:29:18;40.75;;;31.15;;
43994;SDS011;51687;52.160;5.298;2023-02-13T07:31:45;40.83;;;30.70;;
43994;SDS011;51687;52.160;5.298;2023-02-13T07:34:12;39.38;;;30.95;;
43994;SDS011;51687;52.160;5.298;2023-02-13T07:36:39;41.00;;;30.30;;
43994;SDS011;51687;52.160;5.298;2023-02-13T07:39:05;43.30;;;32.33;;
43994;SDS011;51687;52.160;5.298;2023-02-13T07:41:32;45.88;;;32.67;;
43994;SDS011;51687;52.160;5.298;2023-02-13T07:43:59;38.72;;;30.20;;
43994;SDS011;51687;52.160;5.298;2023-02-13T07:46:26;42.80;;;30.67;;
43994;SDS011;51687;52.160;5.298;2023-02-13T07:48:52;37.50;;;31.27;;
43994;SDS011;51687;52.160;5.298;2023-02-13T07:51:19;41.95;;;31.60;;
43994;SDS011;51687;52.160;5.298;2023-02-13T07:53:50;38.00;;;30.90;;
43994;SDS011;51687;52.160;5.298;2023-02-13T07:56:21;34.30;;;28.63;;
43994;SDS011;51687;52.160;5.298;2023-02-13T07:58:48;34.38;;;30.65;;
43994;SDS011;51687;52.160;5.298;2023-02-13T08:01:16;38.22;;;31.98;;
43994;SDS011;51687;52.160;5.298;2023-02-13T08:03:48;34.67;;;29.00;;
43994;SDS011;51687;52.160;5.298;2023-02-13T08:06:17;34.72;;;29.02;;
43994;SDS011;51687;52.160;5.298;2023-02-13T08:08:45;35.38;;;28.90;;
43994;SDS011;51687;52.160;5.298;2023-02-13T08:11:27;37.42;;;30.27;;
43994;SDS011;51687;52.160;5.298;2023-02-13T08:14:16;34.13;;;29.90;;
43994;SDS011;51687;52.160;5.298;2023-02-13T08:16:43;37.25;;;31.17;;
43994;SDS011;51687;52.160;5.298;2023-02-13T08:19:10;35.80;;;30.02;;
43994;SDS011;51687;52.160;5.298;2023-02-13T08:21:36;36.63;;;30.13;;
43994;SDS011;51687;52.160;5.298;2023-02-13T08:24:05;38.05;;;29.05;;
43994;SDS011;51687;52.160;5.298;2023-02-13T08:26:33;34.45;;;28.58;;
43994;SDS011;51687;52.160;5.298;2023-02-13T08:28:59;44.72;;;29.52;;
43994;SDS011;51687;52.160;5.298;2023-02-13T08:31:27;40.10;;;29.65;;
43994;SDS011;51687;52.160;5.298;2023-02-13T08:33:54;38.20;;;29.63;;
43994;SDS011;51687;52.160;5.298;2023-02-13T08:38:49;42.67;;;29.42;;
43994;SDS011;51687;52.160;5.298;2023-02-13T08:41:16;37.20;;;29.55;;
43994;SDS011;51687;52.160;5.298;2023-02-13T08:43:46;36.70;;;28.88;;
43994;SDS011;51687;52.160;5.298;2023-02-13T08:46:13;33.88;;;28.42;;
43994;SDS011;51687;52.160;5.298;2023-02-13T08:48:42;33.58;;;29.75;;
43994;SDS011;51687;52.160;5.298;2023-02-13T08:51:10;34.25;;;27.52;;
43994;SDS011;51687;52.160;5.298;2023-02-13T08:53:38;29.50;;;26.38;;
43994;SDS011;51687;52.160;5.298;2023-02-13T08:56:05;32.20;;;28.77;;
43994;SDS011;51687;52.160;5.298;2023-02-13T08:58:32;31.15;;;27.92;;
43994;SDS011;51687;52.160;5.298;2023-02-13T09:00:59;31.63;;;27.90;;
43994;SDS011;51687;52.160;5.298;2023-02-13T09:03:29;31.10;;;27.77;;
43994;SDS011;51687;52.160;5.298;2023-02-13T09:05:57;30.80;;;27.40;;
43994;SDS011;51687;52.160;5.298;2023-02-13T09:08:26;27.55;;;24.77;;
43994;SDS011;51687;52.160;5.298;2023-02-13T09:10:58;30.10;;;26.75;;
43994;SDS011;51687;52.160;5.298;2023-02-13T09:13:27;28.98;;;26.17;;
43994;SDS011;51687;52.160;5.298;2023-02-13T09:16:03;29.23;;;26.17;;
43994;SDS011;51687;52.160;5.298;2023-02-13T09:18:32;28.30;;;25.50;;
43994;SDS011;51687;52.160;5.298;2023-02-13T09:21:01;31.00;;;27.88;;
43994;SDS011;51687;52.160;5.298;2023-02-13T09:23:32;27.93;;;25.20;;
43994;SDS011;51687;52.160;5.298;2023-02-13T09:26:00;29.25;;;26.50;;
43994;SDS011;51687;52.160;5.298;2023-02-13T09:28:31;25.80;;;23.30;;
43994;SDS011;51687;52.160;5.298;2023-02-13T09:31:03;28.02;;;25.52;;
43994;SDS011;51687;52.160;5.298;2023-02-13T09:33:48;28.45;;;25.80;;
43994;SDS011;51687;52.160;5.298;2023-02-13T09:36:19;28.92;;;25.98;;
43994;SDS011;51687;52.160;5.298;2023-02-13T09:38:54;25.05;;;22.65;;
43994;SDS011;51687;52.160;5.298;2023-02-13T09:41:29;29.73;;;26.33;;
43994;SDS011;51687;52.160;5.298;2023-02-13T09:46:39;25.63;;;23.38;;
43994;SDS011;51687;52.160;5.298;2023-02-13T09:49:15;27.85;;;24.95;;
43994;SDS011;51687;52.160;5.298;2023-02-13T09:51:46;27.35;;;24.67;;
43994;SDS011;51687;52.160;5.298;2023-02-13T09:54:19;26.27;;;23.73;;
43994;SDS011;51687;52.160;5.298;2023-02-13T09:56:56;26.15;;;23.58;;
43994;SDS011;51687;52.160;5.298;2023-02-13T09:59:46;27.52;;;24.83;;
43994;SDS011;51687;52.160;5.298;2023-02-13T10:02:21;26.50;;;24.10;;
43994;SDS011;51687;52.160;5.298;2023-02-13T10:07:27;27.65;;;23.30;;
43994;SDS011;51687;52.160;5.298;2023-02-13T10:10:06;26.33;;;23.80;;
43994;SDS011;51687;52.160;5.298;2023-02-13T10:17:55;24.55;;;22.45;;
43994;SDS011;51687;52.160;5.298;2023-02-13T10:20:30;24.75;;;22.73;;
43994;SDS011;51687;52.160;5.298;2023-02-13T10:22:59;25.02;;;22.83;;
43994;SDS011;51687;52.160;5.298;2023-02-13T10:25:30;23.58;;;21.58;;
43994;SDS011;51687;52.160;5.298;2023-02-13T10:28:11;21.63;;;19.90;;
43994;SDS011;51687;52.160;5.298;2023-02-13T10:30:50;24.75;;;22.63;;
43994;SDS011;51687;52.160;5.298;2023-02-13T10:33:26;24.58;;;22.33;;
43994;SDS011;51687;52.160;5.298;2023-02-13T10:36:00;25.15;;;22.95;;
43994;SDS011;51687;52.160;5.298;2023-02-13T10:38:29;24.00;;;21.85;;
43994;SDS011;51687;52.160;5.298;2023-02-13T10:43:26;23.50;;;21.58;;
43994;SDS011;51687;52.160;5.298;2023-02-13T10:45:56;25.17;;;22.52;;
43994;SDS011;51687;52.160;5.298;2023-02-13T10:48:40;23.02;;;20.83;;
43994;SDS011;51687;52.160;5.298;2023-02-13T10:51:26;23.05;;;20.95;;
43994;SDS011;51687;52.160;5.298;2023-02-13T10:59:25;23.77;;;21.58;;
43994;SDS011;51687;52.160;5.298;2023-02-13T11:02:30;23.50;;;21.50;;
43994;SDS011;51687;52.160;5.298;2023-02-13T11:05:00;22.08;;;20.08;;
43994;SDS011;51687;52.160;5.298;2023-02-13T11:09:57;20.70;;;18.70;;
43994;SDS011;51687;52.160;5.298;2023-02-13T11:12:26;22.92;;;20.90;;
43994;SDS011;51687;52.160;5.298;2023-02-13T11:14:58;24.15;;;20.15;;
43994;SDS011;51687;52.160;5.298;2023-02-13T11:17:26;23.00;;;20.77;;
43994;SDS011;51687;52.160;5.298;2023-02-13T11:19:55;21.23;;;19.52;;
43994;SDS011;51687;52.160;5.298;2023-02-13T11:22:30;21.63;;;19.60;;
43994;SDS011;51687;52.160;5.298;2023-02-13T11:24:59;22.13;;;19.50;;
43994;SDS011;51687;52.160;5.298;2023-02-13T11:27:31;21.08;;;19.33;;
43994;SDS011;51687;52.160;5.298;2023-02-13T11:30:00;23.38;;;20.98;;
43994;SDS011;51687;52.160;5.298;2023-02-13T11:32:31;22.75;;;20.73;;
43994;SDS011;51687;52.160;5.298;2023-02-13T11:35:15;22.02;;;19.80;;
43994;SDS011;51687;52.160;5.298;2023-02-13T11:40:44;23.13;;;20.88;;
43994;SDS011;51687;52.160;5.298;2023-02-13T11:45:40;21.42;;;19.70;;
43994;SDS011;51687;52.160;5.298;2023-02-13T11:48:17;20.13;;;18.42;;
43994;SDS011;51687;52.160;5.298;2023-02-13T11:50:51;20.13;;;18.45;;
43994;SDS011;51687;52.160;5.298;2023-02-13T11:53:20;19.70;;;18.00;;
43994;SDS011;51687;52.160;5.298;2023-02-13T11:58:29;21.75;;;19.85;;
43994;SDS011;51687;52.160;5.298;2023-02-13T12:03:36;18.98;;;17.38;;
43994;SDS011;51687;52.160;5.298;2023-02-13T12:06:14;18.73;;;16.95;;
43994;SDS011;51687;52.160;5.298;2023-02-13T12:08:42;17.95;;;16.45;;
43994;SDS011;51687;52.160;5.298;2023-02-13T12:11:46;18.27;;;16.45;;
43994;SDS011;51687;52.160;5.298;2023-02-13T12:14:20;17.98;;;16.52;;
43994;SDS011;51687;52.160;5.298;2023-02-13T12:16:50;19.13;;;17.35;;
43994;SDS011;51687;52.160;5.298;2023-02-13T12:19:23;18.42;;;16.80;;
43994;SDS011;51687;52.160;5.298;2023-02-13T12:35:52;17.52;;;16.08;;
43994;SDS011;51687;52.160;5.298;2023-02-13T12:41:22;18.83;;;17.02;;
43994;SDS011;51687;52.160;5.298;2023-02-13T13:02:17;15.55;;;14.15;;
43994;SDS011;51687;52.160;5.298;2023-02-13T13:12:51;15.45;;;14.15;;
43994;SDS011;51687;52.160;5.298;2023-02-13T13:15:40;15.63;;;14.27;;
43994;SDS011;51687;52.160;5.298;2023-02-13T13:20:47;15.75;;;14.55;;
43994;SDS011;51687;52.160;5.298;2023-02-13T13:23:19;15.43;;;14.02;;
43994;SDS011;51687;52.160;5.298;2023-02-13T13:25:50;15.80;;;14.50;;
43994;SDS011;51687;52.160;5.298;2023-02-13T13:28:28;15.45;;;14.25;;
43994;SDS011;51687;52.160;5.298;2023-02-13T13:30:58;16.92;;;15.52;;
43994;SDS011;51687;52.160;5.298;2023-02-13T13:33:26;15.95;;;14.52;;
43994;SDS011;51687;52.160;5.298;2023-02-13T13:36:04;14.52;;;13.38;;
43994;SDS011;51687;52.160;5.298;2023-02-13T13:39:14;15.93;;;14.63;;
43994;SDS011;51687;52.160;5.298;2023-02-13T13:42:09;16.05;;;14.75;;
43994;SDS011;51687;52.160;5.298;2023-02-13T13:53:04;14.40;;;13.20;;
43994;SDS011;51687;52.160;5.298;2023-02-13T14:03:48;14.35;;;13.25;;
43994;SDS011;51687;52.160;5.298;2023-02-13T14:06:16;14.10;;;13.00;;
43994;SDS011;51687;52.160;5.298;2023-02-13T14:11:25;13.60;;;12.50;;
43994;SDS011;51687;52.160;5.298;2023-02-13T14:13:52;14.35;;;13.05;;
43994;SDS011;51687;52.160;5.298;2023-02-13T14:19:05;13.23;;;12.15;;
43994;SDS011;51687;52.160;5.298;2023-02-13T14:21:48;14.23;;;12.95;;
43994;SDS011;51687;52.160;5.298;2023-02-13T14:24:15;12.90;;;11.63;;
43994;SDS011;51687;52.160;5.298;2023-02-13T14:26:54;13.57;;;12.45;;
43994;SDS011;51687;52.160;5.298;2023-02-13T14:29:31;13.43;;;12.35;;
43994;SDS011;51687;52.160;5.298;2023-02-13T14:32:01;13.13;;;12.02;;
43994;SDS011;51687;52.160;5.298;2023-02-13T14:34:30;12.68;;;11.68;;
43994;SDS011;51687;52.160;5.298;2023-02-13T14:37:20;12.60;;;11.60;;
43994;SDS011;51687;52.160;5.298;2023-02-13T14:40:10;13.05;;;11.93;;
43994;SDS011;51687;52.160;5.298;2023-02-13T14:42:46;14.05;;;12.93;;
43994;SDS011;51687;52.160;5.298;2023-02-13T14:45:20;12.10;;;11.10;;
43994;SDS011;51687;52.160;5.298;2023-02-13T14:47:54;11.88;;;10.98;;
43994;SDS011;51687;52.160;5.298;2023-02-13T14:50:27;12.65;;;11.55;;
43994;SDS011;51687;52.160;5.298;2023-02-13T14:52:56;12.63;;;11.63;;
43994;SDS011;51687;52.160;5.298;2023-02-13T14:55:30;12.55;;;11.55;;
43994;SDS011;51687;52.160;5.298;2023-02-13T15:00:32;14.27;;;13.02;;
43994;SDS011;51687;52.160;5.298;2023-02-13T15:03:05;15.25;;;14.05;;
43994;SDS011;51687;52.160;5.298;2023-02-13T15:05:37;14.48;;;13.38;;
43994;SDS011;51687;52.160;5.298;2023-02-13T15:08:13;15.60;;;13.60;;
43994;SDS011;51687;52.160;5.298;2023-02-13T15:10:51;14.05;;;12.93;;
43994;SDS011;51687;52.160;5.298;2023-02-13T15:13:22;13.85;;;12.55;;
43994;SDS011;51687;52.160;5.298;2023-02-13T15:15:52;13.18;;;11.93;;
43994;SDS011;51687;52.160;5.298;2023-02-13T15:18:29;14.13;;;13.07;;
43994;SDS011;51687;52.160;5.298;2023-02-13T15:21:01;14.27;;;13.00;;
43994;SDS011;51687;52.160;5.298;2023-02-13T15:23:29;13.25;;;12.15;;
43994;SDS011;51687;52.160;5.298;2023-02-13T15:25:58;14.25;;;13.15;;
43994;SDS011;51687;52.160;5.298;2023-02-13T15:28:32;13.98;;;12.88;;
43994;SDS011;51687;52.160;5.298;2023-02-13T15:33:49;14.37;;;13.17;;
43994;SDS011;51687;52.160;5.298;2023-02-13T15:36:21;14.50;;;13.35;;
43994;SDS011;51687;52.160;5.298;2023-02-13T15:38:58;14.60;;;13.50;;
43994;SDS011;51687;52.160;5.298;2023-02-13T15:41:28;15.73;;;14.18;;
43994;SDS011;51687;52.160;5.298;2023-02-13T15:43:58;17.42;;;15.98;;
43994;SDS011;51687;52.160;5.298;2023-02-13T15:46:27;15.88;;;14.43;;
43994;SDS011;51687;52.160;5.298;2023-02-13T15:48:57;16.73;;;15.43;;
43994;SDS011;51687;52.160;5.298;2023-02-13T15:51:27;18.13;;;16.63;;
43994;SDS011;51687;52.160;5.298;2023-02-13T15:54:00;18.20;;;16.80;;
43994;SDS011;51687;52.160;5.298;2023-02-13T15:56:28;17.23;;;15.93;;
43994;SDS011;51687;52.160;5.298;2023-02-13T16:01:23;18.30;;;16.90;;
43994;SDS011;51687;52.160;5.298;2023-02-13T16:03:53;16.98;;;15.52;;
43994;SDS011;51687;52.160;5.298;2023-02-13T16:06:22;16.90;;;15.20;;
43994;SDS011;51687;52.160;5.298;2023-02-13T16:08:53;17.47;;;16.00;;
43994;SDS011;51687;52.160;5.298;2023-02-13T16:11:22;16.35;;;15.15;;
43994;SDS011;51687;52.160;5.298;2023-02-13T16:19:20;15.88;;;14.68;;
43994;SDS011;51687;52.160;5.298;2023-02-13T16:21:49;16.30;;;15.10;;
43994;SDS011;51687;52.160;5.298;2023-02-13T16:24:17;17.15;;;14.98;;
43994;SDS011;51687;52.160;5.298;2023-02-13T16:26:45;17.05;;;15.65;;
43994;SDS011;51687;52.160;5.298;2023-02-13T16:29:16;16.95;;;15.75;;
43994;SDS011;51687;52.160;5.298;2023-02-13T16:31:44;16.40;;;15.20;;
43994;SDS011;51687;52.160;5.298;2023-02-13T16:36:50;16.35;;;15.05;;
43994;SDS011;51687;52.160;5.298;2023-02-13T16:39:25;15.40;;;14.30;;
43994;SDS011;51687;52.160;5.298;2023-02-13T16:41:53;16.50;;;15.10;;
43994;SDS011;51687;52.160;5.298;2023-02-13T16:44:27;16.95;;;15.65;;
43994;SDS011;51687;52.160;5.298;2023-02-13T16:47:04;17.30;;;15.85;;
43994;SDS011;51687;52.160;5.298;2023-02-13T16:49:35;17.52;;;16.23;;
43994;SDS011;51687;52.160;5.298;2023-02-13T16:54:48;16.10;;;14.90;;
43994;SDS011;51687;52.160;5.298;2023-02-13T16:57:19;16.35;;;15.10;;
43994;SDS011;51687;52.160;5.298;2023-02-13T17:02:22;15.95;;;14.73;;
43994;SDS011;51687;52.160;5.298;2023-02-13T17:07:24;16.20;;;14.95;;
43994;SDS011;51687;52.160;5.298;2023-02-13T17:10:35;16.05;;;14.57;;
43994;SDS011;51687;52.160;5.298;2023-02-13T17:12:44;17.10;;;15.48;;
43994;SDS011;51687;52.160;5.298;2023-02-13T17:15:11;16.90;;;15.27;;
43994;SDS011;51687;52.160;5.298;2023-02-13T17:17:39;17.50;;;16.02;;
43994;SDS011;51687;52.160;5.298;2023-02-13T17:20:06;16.58;;;15.27;;
43994;SDS011;51687;52.160;5.298;2023-02-13T17:22:35;17.05;;;15.65;;
43994;SDS011;51687;52.160;5.298;2023-02-13T17:25:04;16.92;;;14.90;;
43994;SDS011;51687;52.160;5.298;2023-02-13T17:27:32;17.73;;;15.43;;
43994;SDS011;51687;52.160;5.298;2023-02-13T17:29:59;16.90;;;15.23;;
43994;SDS011;51687;52.160;5.298;2023-02-13T17:32:27;15.15;;;13.75;;
43994;SDS011;51687;52.160;5.298;2023-02-13T17:34:55;17.25;;;15.65;;